TimeCDT,TemperatureF,Dew PointF,Humidity,Sea Level PressureIn,VisibilityMPH,Wind Direction,Wind SpeedMPH,Gust SpeedMPH,PrecipitationIn,Events,Conditions,WindDirDegrees,DateUTC
12:52 AM,75.0,73.0,94,29.83,8.0,Calm,Calm,-,N/A,,Clear,0,2012-09-05 05:52:00
1:52 AM,73.9,72.0,93,29.83,9.0,SSE,3.5,-,N/A,,Clear,160,2012-09-05 06:52:00
2:52 AM,73.9,71.1,91,29.83,8.0,Calm,Calm,-,N/A,,Clear,0,2012-09-05 07:52:00
3:52 AM,73.9,71.1,91,29.83,7.0,Calm,Calm,-,N/A,,Clear,0,2012-09-05 08:52:00
4:52 AM,75.0,71.1,87,29.83,8.0,Calm,Calm,-,N/A,,Clear,0,2012-09-05 09:52:00
5:52 AM,73.0,70.0,90,29.83,7.0,SE,3.5,-,N/A,,Clear,140,2012-09-05 10:52:00
6:29 AM,73.4,71.6,94,29.86,6.0,Calm,Calm,-,N/A,Thunderstorm,Clear,0,2012-09-05 11:29:00
6:52 AM,75.0,72.0,90,29.86,5.0,South,4.6,-,N/A,,Clear,190,2012-09-05 11:52:00
7:01 AM,75.2,71.6,89,29.88,5.0,South,5.8,-,N/A,Thunderstorm,Mostly Cloudy,190,2012-09-05 12:01:00
7:52 AM,75.0,72.0,90,29.84,7.0,NNE,3.5,-,N/A,Thunderstorm,Thunderstorm,20,2012-09-05 12:52:00
8:10 AM,75.2,73.4,94,29.84,6.0,SSE,3.5,-,N/A,,Mostly Cloudy,150,2012-09-05 13:10:00
8:29 AM,75.2,71.6,89,29.84,3.0,South,6.9,-,N/A,Rain-Thunderstorm,Thunderstorms and Rain,180,2012-09-05 13:29:00
8:52 AM,75.9,72.0,87,29.84,10.0,SSW,3.5,-,0.04,Thunderstorm,Mostly Cloudy,200,2012-09-05 13:52:00
9:09 AM,77.0,71.6,83,29.85,10.0,SW,8.1,-,N/A,,Mostly Cloudy,230,2012-09-05 14:09:00
9:52 AM,77.0,71.1,82,29.86,10.0,NNE,3.5,-,N/A,,Mostly Cloudy,30,2012-09-05 14:52:00
10:52 AM,81.0,72.0,74,29.86,10.0,East,8.1,-,N/A,,Mostly Cloudy,90,2012-09-05 15:52:00
11:52 AM,82.9,72.0,69,29.86,10.0,South,4.6,-,N/A,,Mostly Cloudy,170,2012-09-05 16:52:00
12:52 PM,75.0,70.0,84,29.89,10.0,NE,13.8,17.3,0.00,Rain,Light Rain,40,2012-09-05 17:52:00
1:52 PM,75.9,70.0,82,29.88,10.0,ENE,11.5,-,0.00,,Overcast,60,2012-09-05 18:52:00
2:52 PM,79.0,69.1,72,29.86,10.0,East,8.1,-,N/A,,Overcast,80,2012-09-05 19:52:00
3:52 PM,80.1,69.1,69,29.83,10.0,ESE,6.9,-,N/A,,Partly Cloudy,110,2012-09-05 20:52:00
4:52 PM,81.0,70.0,69,29.79,10.0,SE,6.9,-,N/A,,Clear,130,2012-09-05 21:52:00
6:52 PM,81.0,72.0,74,29.82,10.0,Calm,Calm,-,N/A,,Clear,0,2012-09-05 23:52:00
7:52 PM,75.9,72.0,87,29.83,10.0,Calm,Calm,-,N/A,,Clear,0,2012-09-06 00:52:00
8:52 PM,73.9,72.0,93,29.85,10.0,ESE,4.6,-,N/A,,Clear,110,2012-09-06 01:52:00
9:52 PM,73.0,71.1,93,29.87,8.0,ENE,4.6,-,N/A,,Clear,70,2012-09-06 02:52:00
10:52 PM,73.0,71.1,93,29.87,7.0,ESE,3.5,-,N/A,,Clear,110,2012-09-06 03:52:00
11:52 PM,72.0,70.0,93,29.88,5.0,Calm,Calm,-,N/A,,Clear,0,2012-09-06 04:52:00